createdAt,value
2022-09-20T00:00:47.367Z,46.60
2022-09-20T00:03:15.355Z,46.51
2022-09-20T00:05:44.490Z,46.77
2022-09-20T00:08:16.695Z,46.86
2022-09-20T00:10:43.680Z,46.71
2022-09-20T00:13:13.593Z,46.45
2022-09-20T00:15:44.820Z,46.78
2022-09-20T00:18:12.068Z,46.68
2022-09-20T00:20:48.910Z,46.75
2022-09-20T00:23:16.296Z,46.53
2022-09-20T00:25:43.517Z,46.72
2022-09-20T00:28:11.214Z,46.77
2022-09-20T00:30:38.220Z,46.82
2022-09-20T00:33:04.980Z,46.54
2022-09-20T00:35:31.596Z,46.52
2022-09-20T00:37:58.128Z,46.51
2022-09-20T00:40:27.056Z,46.56
2022-09-20T00:42:53.941Z,46.43
2022-09-20T00:45:25.951Z,46.72
2022-09-20T00:48:15.934Z,46.63
2022-09-20T00:50:47.082Z,46.60
2022-09-20T00:53:18.857Z,46.44
2022-09-20T00:55:50.067Z,46.49
2022-09-20T00:58:20.019Z,46.40
2022-09-20T01:00:48.802Z,46.52
2022-09-20T01:03:20.583Z,46.35
2022-09-20T01:05:47.160Z,46.50
2022-09-20T01:08:15.795Z,46.60
2022-09-20T01:10:43.031Z,46.54
2022-09-20T01:13:09.533Z,46.41
2022-09-20T01:15:38.391Z,46.69
2022-09-20T01:18:07.160Z,46.49
2022-09-20T01:20:38.838Z,46.43
2022-09-20T01:23:05.308Z,46.15
2022-09-20T01:25:56.937Z,46.31
2022-09-20T01:28:24.487Z,46.34
2022-09-20T01:31:25.684Z,46.34
2022-09-20T01:33:59.764Z,46.39
2022-09-20T01:36:50.884Z,46.19
2022-09-20T01:39:29.729Z,46.51
2022-09-20T01:42:06.565Z,46.36
2022-09-20T01:44:46.900Z,46.49
2022-09-20T01:47:35.667Z,46.32
2022-09-20T01:50:21.051Z,46.25
2022-09-20T01:52:50.860Z,46.43
2022-09-20T01:56:08.577Z,46.19
2022-09-20T01:59:23.310Z,46.28
2022-09-20T02:01:53.195Z,46.47
2022-09-20T02:04:44.754Z,46.24
2022-09-20T02:07:38.220Z,46.11
2022-09-20T02:10:17.680Z,46.11
2022-09-20T02:12:54.123Z,46.27
2022-09-20T02:15:42.716Z,46.16
2022-09-20T02:18:18.139Z,46.44
2022-09-20T02:20:56.196Z,46.30
2022-09-20T02:23:41.914Z,46.07
2022-09-20T02:26:26.868Z,46.17
2022-09-20T02:29:14.591Z,46.00
2022-09-20T02:32:07.369Z,46.30
2022-09-20T02:34:51.924Z,46.08
2022-09-20T02:37:30.688Z,46.09
2022-09-20T02:40:34.963Z,46.00
2022-09-20T02:43:23.228Z,46.19
2022-09-20T02:46:01.713Z,46.21
2022-09-20T02:48:42.680Z,46.11
2022-09-20T02:51:14.263Z,46.05
2022-09-20T02:54:03.623Z,45.95
2022-09-20T02:57:21.503Z,46.21
2022-09-20T03:00:02.176Z,45.91
2022-09-20T03:02:40.880Z,45.80
2022-09-20T03:05:19.570Z,45.95
2022-09-20T03:08:04.736Z,45.96
2022-09-20T03:11:02.131Z,46.07
2022-09-20T03:14:02.770Z,46.00
2022-09-20T03:16:57.869Z,45.92
2022-09-20T03:19:46.061Z,45.96
2022-09-20T03:22:38.528Z,45.85
2022-09-20T03:25:11.219Z,45.78
2022-09-20T03:27:41.040Z,45.78
2022-09-20T03:30:28.918Z,45.97
2022-09-20T03:33:29.955Z,45.72
2022-09-20T03:36:20.647Z,45.86
2022-09-20T03:39:18.379Z,45.69
2022-09-20T03:41:57.856Z,45.99
2022-09-20T03:44:36.717Z,45.99
2022-09-20T03:47:31.913Z,45.80
2022-09-20T03:50:04.534Z,45.82
2022-09-20T03:52:45.863Z,45.92
2022-09-20T03:55:14.064Z,45.54
2022-09-20T03:57:46.555Z,45.68
2022-09-20T04:00:31.632Z,45.87
2022-09-20T04:03:25.695Z,45.93
2022-09-20T04:05:58.059Z,45.78
2022-09-20T04:09:02.059Z,45.63
2022-09-20T04:11:42.662Z,45.79
2022-09-20T04:14:25.387Z,45.66
2022-09-20T04:17:05.809Z,45.69
2022-09-20T04:19:44.734Z,45.68
2022-09-20T04:22:11.942Z,45.43
2022-09-20T04:24:38.932Z,45.56
2022-09-20T04:27:10.391Z,45.74
2022-09-20T04:29:46.460Z,45.69
2022-09-20T04:32:32.195Z,45.76
2022-09-20T04:35:39.577Z,45.41
2022-09-20T04:38:14.801Z,45.58
2022-09-20T04:41:34.372Z,45.42
2022-09-20T04:44:13.001Z,45.44
2022-09-20T04:46:39.501Z,45.59
2022-09-20T04:49:24.784Z,45.69
2022-09-20T04:52:22.289Z,45.81
2022-09-20T04:55:16.607Z,45.63
2022-09-20T04:58:01.504Z,45.69
2022-09-20T05:00:55.843Z,45.64
2022-09-20T05:03:41.264Z,45.86
2022-09-20T05:06:16.816Z,46.08
2022-09-20T05:09:08.226Z,46.15
2022-09-20T05:11:48.524Z,46.43
2022-09-20T05:14:38.584Z,46.57
2022-09-20T05:17:41.455Z,46.93
2022-09-20T05:20:40.205Z,46.94
2022-09-20T05:23:31.068Z,46.88
2022-09-20T05:26:08.001Z,46.93
2022-09-20T05:29:02.308Z,46.96
2022-09-20T05:31:38.904Z,46.75
2022-09-20T05:34:33.010Z,46.77
2022-09-20T05:37:12.265Z,46.83
2022-09-20T05:39:50.236Z,46.72
2022-09-20T05:42:23.041Z,46.58
2022-09-20T05:45:07.871Z,46.37
2022-09-20T05:47:55.088Z,46.29
2022-09-20T05:50:27.466Z,46.46
2022-09-20T05:52:59.326Z,46.54
2022-09-20T05:55:44.455Z,46.52
2022-09-20T05:58:38.973Z,46.36
2022-09-20T06:01:29.785Z,46.50
2022-09-20T06:04:12.698Z,46.50
2022-09-20T06:06:57.363Z,46.53
2022-09-20T06:09:45.296Z,46.62
2022-09-20T06:12:38.259Z,46.51
2022-09-20T06:15:19.683Z,46.49
2022-09-20T06:18:15.227Z,46.48
2022-09-20T06:21:00.344Z,46.39
2022-09-20T06:23:27.587Z,46.35
2022-09-20T06:25:59.839Z,46.57
2022-09-20T06:28:30.816Z,46.56
2022-09-20T06:30:57.512Z,46.72
2022-09-20T06:33:25.466Z,47.01
2022-09-20T06:35:59.183Z,46.68
2022-09-20T06:39:02.684Z,46.98
2022-09-20T06:41:32.390Z,46.66
2022-09-20T06:44:05.465Z,46.46
2022-09-20T06:46:34.321Z,46.46
2022-09-20T06:49:01.037Z,46.23
2022-09-20T06:51:33.665Z,46.20
2022-09-20T06:54:01.853Z,46.37
2022-09-20T06:56:31.304Z,46.05
2022-09-20T06:58:58.140Z,46.20
2022-09-20T07:01:30.097Z,46.24
2022-09-20T07:03:58.585Z,46.21
2022-09-20T07:06:25.391Z,46.11
2022-09-20T07:08:52.077Z,45.95
2022-09-20T07:11:18.895Z,46.13
2022-09-20T07:13:50.726Z,46.01
2022-09-20T07:16:17.693Z,46.09
2022-09-20T07:18:44.279Z,45.97
2022-09-20T07:21:18.959Z,45.88
2022-09-20T07:23:46.079Z,46.03
2022-09-20T07:26:27.797Z,45.76
2022-09-20T07:28:55.411Z,45.78
2022-09-20T07:31:24.154Z,45.71
2022-09-20T07:33:53.747Z,45.82
2022-09-20T07:36:20.551Z,45.82
2022-09-20T07:38:50.112Z,45.51
2022-09-20T07:41:19.045Z,45.73
2022-09-20T07:43:46.551Z,45.58
2022-09-20T07:46:15.989Z,45.75
2022-09-20T07:48:42.680Z,45.56
2022-09-20T07:51:13.558Z,45.37
2022-09-20T07:53:41.111Z,45.45
2022-09-20T07:56:18.343Z,45.20
2022-09-20T07:58:48.726Z,45.38
2022-09-20T08:01:21.002Z,45.33
2022-09-20T08:03:47.852Z,45.36
2022-09-20T08:06:16.279Z,45.32
2022-09-20T08:08:43.451Z,45.03
2022-09-20T08:11:12.719Z,45.18
2022-09-20T08:16:28.957Z,45.06
2022-09-20T08:18:58.739Z,45.18
2022-09-20T08:21:27.743Z,44.88
2022-09-20T08:23:54.448Z,44.95
2022-09-20T08:26:24.512Z,44.80
2022-09-20T08:28:53.216Z,44.78
2022-09-20T08:31:22.048Z,44.92
2022-09-20T08:33:50.396Z,44.97
2022-09-20T08:36:22.494Z,44.68
2022-09-20T08:41:39.394Z,44.73
2022-09-20T08:44:14.930Z,44.76
2022-09-20T08:46:56.175Z,44.55
2022-09-20T08:49:27.552Z,44.63
2022-09-20T08:51:58.005Z,44.61
2022-09-20T08:54:32.688Z,44.54
2022-09-20T08:57:10.833Z,44.61
2022-09-20T08:59:37.454Z,44.52
2022-09-20T09:02:14.018Z,44.41
2022-09-20T09:04:44.697Z,44.54
2022-09-20T09:07:16.252Z,44.37
2022-09-20T09:09:47.308Z,44.29
2022-09-20T09:12:20.907Z,44.25
2022-09-20T09:17:29.597Z,44.24
2022-09-20T09:20:15.371Z,44.20
2022-09-20T09:22:45.515Z,44.23
2022-09-20T09:25:15.229Z,44.02
2022-09-20T09:27:58.468Z,44.16
2022-09-20T09:30:36.027Z,43.95
2022-09-20T09:33:30.712Z,44.08
2022-09-20T09:36:08.926Z,44.17
2022-09-20T09:38:41.478Z,44.05
2022-09-20T09:41:26.852Z,44.04
2022-09-20T09:44:10.387Z,43.99
2022-09-20T09:46:40.032Z,44.15
2022-09-20T09:49:12.079Z,44.11
2022-09-20T09:51:42.416Z,43.95
2022-09-20T09:54:17.685Z,43.80
2022-09-20T09:56:57.322Z,43.61
2022-09-20T09:59:29.891Z,43.72
2022-09-20T10:02:30.885Z,43.62
2022-09-20T10:05:22.375Z,43.48
2022-09-20T10:08:10.957Z,43.51
2022-09-20T10:11:10.180Z,43.56
2022-09-20T10:13:40.896Z,43.41
2022-09-20T10:16:10.533Z,43.33
2022-09-20T10:18:44.041Z,43.44
2022-09-20T10:21:43.417Z,43.34
2022-09-20T10:24:30.231Z,43.26
2022-09-20T10:27:22.551Z,43.48
2022-09-20T10:29:52.994Z,43.28
2022-09-20T10:32:45.745Z,43.19
2022-09-20T10:35:27.635Z,43.48
2022-09-20T10:37:54.383Z,43.38
2022-09-20T10:40:53.616Z,43.38
2022-09-20T10:43:41.858Z,43.59
2022-09-20T10:46:31.476Z,43.90
2022-09-20T10:49:24.861Z,44.15
2022-09-20T10:52:00.783Z,43.93
2022-09-20T10:55:03.513Z,43.92
2022-09-20T10:58:07.473Z,43.88
2022-09-20T11:01:03.730Z,43.92
2022-09-20T11:03:51.184Z,44.02
2022-09-20T11:06:50.520Z,43.86
2022-09-20T11:09:27.464Z,44.17
2022-09-20T11:12:03.384Z,44.06
2022-09-20T11:14:41.328Z,44.06
2022-09-20T11:17:15.761Z,44.00
2022-09-20T11:20:07.674Z,43.94
2022-09-20T11:22:43.687Z,44.18
2022-09-20T11:25:51.895Z,44.11
2022-09-20T11:28:28.100Z,44.15
2022-09-20T11:31:02.440Z,44.42
2022-09-20T11:33:40.754Z,44.70
2022-09-20T11:36:17.597Z,44.97
2022-09-20T11:38:53.627Z,44.88
2022-09-20T11:41:27.215Z,44.98
2022-09-20T11:43:57.291Z,44.93
2022-09-20T11:46:55.888Z,44.84
2022-09-20T11:49:28.535Z,44.85
2022-09-20T11:52:38.185Z,44.93
2022-09-20T11:55:16.596Z,45.35
2022-09-20T11:57:43.756Z,45.47
2022-09-20T12:00:10.629Z,45.30
2022-09-20T12:02:53.364Z,45.11
2022-09-20T12:05:38.956Z,44.80
2022-09-20T12:08:20.768Z,44.88
2022-09-20T12:10:58.912Z,44.79
2022-09-20T12:13:27.647Z,44.96
2022-09-20T12:16:01.170Z,45.21
2022-09-20T12:18:39.180Z,44.92
2022-09-20T12:21:07.377Z,44.95
2022-09-20T12:23:42.942Z,44.84
2022-09-20T12:26:18.682Z,44.70
2022-09-20T12:28:50.955Z,44.40
2022-09-20T12:31:30.904Z,44.34
2022-09-20T12:34:10.624Z,44.43
2022-09-20T12:36:38.583Z,44.48
2022-09-20T12:39:19.100Z,44.25
2022-09-20T12:41:58.556Z,44.26
2022-09-20T12:44:25.056Z,44.43
2022-09-20T12:47:00.118Z,44.37
2022-09-20T12:49:48.496Z,44.22
2022-09-20T12:52:56.153Z,44.00
2022-09-20T12:55:26.135Z,44.07
2022-09-20T12:58:01.922Z,44.11
2022-09-20T13:00:37.038Z,44.17
2022-09-20T13:03:37.210Z,44.04
2022-09-20T13:06:06.675Z,43.88
2022-09-20T13:09:00.776Z,43.88
2022-09-20T13:11:42.450Z,44.13
2022-09-20T13:14:18.618Z,43.88
2022-09-20T13:16:50.053Z,43.86
2022-09-20T13:19:20.504Z,43.86
2022-09-20T13:22:10.302Z,43.89
2022-09-20T13:24:45.021Z,44.05
2022-09-20T13:27:20.197Z,43.74
2022-09-20T13:29:47.265Z,43.74
2022-09-20T13:32:17.051Z,43.70
2022-09-20T13:34:43.883Z,43.71
2022-09-20T13:37:20.997Z,43.84
2022-09-20T13:39:52.947Z,43.77
2022-09-20T13:42:19.821Z,43.86
2022-09-20T13:44:48.407Z,43.79
2022-09-20T13:47:29.269Z,43.66
2022-09-20T13:50:23.220Z,43.69
2022-09-20T13:52:54.076Z,43.76
2022-09-20T13:55:27.041Z,43.64
2022-09-20T13:57:56.651Z,43.58
2022-09-20T14:00:27.823Z,43.65
2022-09-20T14:02:55.480Z,43.66
2022-09-20T14:05:26.275Z,43.53
2022-09-20T14:07:53.788Z,43.63
2022-09-20T14:10:31.874Z,43.77
2022-09-20T14:13:02.066Z,43.71
2022-09-20T14:15:36.396Z,43.77
2022-09-20T14:18:07.039Z,43.74
2022-09-20T14:20:34.319Z,43.57
2022-09-20T14:23:04.051Z,43.40
2022-09-20T14:25:30.937Z,43.43
2022-09-20T14:28:19.917Z,43.53
2022-09-20T14:30:48.345Z,43.56
2022-09-20T14:33:19.427Z,43.52
2022-09-20T14:35:52.940Z,43.40
2022-09-20T14:38:24.773Z,43.40
2022-09-20T14:40:52.300Z,43.61
2022-09-20T14:43:33.782Z,43.46
2022-09-20T14:46:28.508Z,43.44
2022-09-20T14:48:55.288Z,43.38
2022-09-20T14:51:25.192Z,43.45
2022-09-20T14:54:12.903Z,43.34
2022-09-20T14:56:42.619Z,43.37
2022-09-20T14:59:13.845Z,43.53
2022-09-20T15:01:44.954Z,43.44
2022-09-20T15:04:21.582Z,43.53
2022-09-20T15:06:50.049Z,43.35
2022-09-20T15:09:19.363Z,43.28
2022-09-20T15:11:46.294Z,43.29
2022-09-20T15:14:12.837Z,43.32
2022-09-20T15:16:39.457Z,43.43
2022-09-20T15:19:07.982Z,43.42
2022-09-20T15:21:34.601Z,43.46
2022-09-20T15:24:01.381Z,43.77
2022-09-20T15:26:27.986Z,43.73
2022-09-20T15:28:54.651Z,43.57
2022-09-20T15:31:22.172Z,43.48
2022-09-20T15:33:48.719Z,43.53
2022-09-20T15:36:18.932Z,43.39
2022-09-20T15:38:45.670Z,43.33
2022-09-20T15:41:14.355Z,43.24
2022-09-20T15:43:43.178Z,43.46
2022-09-20T15:46:22.106Z,43.37
2022-09-20T15:48:48.732Z,43.32
2022-09-20T15:51:15.455Z,43.28
2022-09-20T15:53:49.324Z,43.38
2022-09-20T15:56:21.172Z,43.44
2022-09-20T15:58:59.385Z,43.57
2022-09-20T16:01:28.213Z,43.51
2022-09-20T16:03:55.939Z,43.47
2022-09-20T16:06:23.809Z,43.44
2022-09-20T16:08:51.916Z,43.50
2022-09-20T16:11:22.942Z,43.61
2022-09-20T16:13:54.823Z,43.24
2022-09-20T16:16:21.822Z,43.29
2022-09-20T16:19:07.417Z,43.23
2022-09-20T16:21:36.457Z,43.37
2022-09-20T16:24:03.293Z,43.24
2022-09-20T16:26:31.318Z,43.34
2022-09-20T16:28:58.330Z,43.52
2022-09-20T16:31:34.522Z,43.58
2022-09-20T16:34:12.612Z,43.64
2022-09-20T16:36:43.411Z,43.78
2022-09-20T16:39:10.973Z,43.68
2022-09-20T16:41:39.069Z,43.88
2022-09-20T16:44:06.157Z,43.74
2022-09-20T16:46:37.003Z,43.73
2022-09-20T16:49:07.032Z,43.61
2022-09-20T16:51:36.422Z,43.72
2022-09-20T16:54:32.099Z,43.70
2022-09-20T16:57:00.430Z,43.78
2022-09-20T16:59:27.210Z,43.72
2022-09-20T17:01:55.807Z,43.70
2022-09-20T17:04:22.574Z,43.80
2022-09-20T17:06:50.246Z,43.73
2022-09-20T17:09:17.100Z,43.87
2022-09-20T17:11:47.043Z,43.66
2022-09-20T17:14:16.333Z,43.76
2022-09-20T17:16:43.712Z,43.64
2022-09-20T17:19:13.106Z,43.69
2022-09-20T17:21:46.194Z,43.80
2022-09-20T17:24:14.077Z,43.40
2022-09-20T17:26:44.419Z,43.77
2022-09-20T17:29:15.392Z,43.89
2022-09-20T17:31:48.748Z,43.82
2022-09-20T17:34:21.457Z,44.03
2022-09-20T17:36:49.021Z,44.03
2022-09-20T17:39:16.459Z,43.86
2022-09-20T17:41:45.967Z,43.89
2022-09-20T17:44:13.199Z,44.12
2022-09-20T17:46:44.266Z,44.00
2022-09-20T17:49:13.008Z,44.05
2022-09-20T17:51:45.803Z,44.07
2022-09-20T17:54:13.979Z,44.15
2022-09-20T17:56:46.391Z,44.08
2022-09-20T17:59:16.303Z,44.14
2022-09-20T18:01:44.633Z,43.95
2022-09-20T18:04:11.993Z,44.05
2022-09-20T18:06:44.100Z,44.15
2022-09-20T18:09:12.225Z,43.89
2022-09-20T18:11:41.488Z,44.10
2022-09-20T18:14:13.295Z,44.82
2022-09-20T18:16:40.325Z,45.51
2022-09-20T18:19:08.386Z,46.35
2022-09-20T18:21:36.831Z,46.21
2022-09-20T18:24:07.774Z,46.30
2022-09-20T18:26:35.468Z,46.21
2022-09-20T18:29:09.426Z,46.06
2022-09-20T18:31:39.067Z,46.37
2022-09-20T18:34:07.668Z,46.44
2022-09-20T18:36:38.576Z,46.42
2022-09-20T18:39:06.540Z,45.97
2022-09-20T18:41:35.926Z,46.16
2022-09-20T18:44:04.228Z,46.12
2022-09-20T18:46:31.284Z,45.86
2022-09-20T18:49:02.351Z,45.74
2022-09-20T18:51:29.111Z,45.74
2022-09-20T18:53:56.661Z,45.50
2022-09-20T18:56:31.923Z,45.47
2022-09-20T18:59:07.991Z,45.20
2022-09-20T19:02:12.324Z,45.49
2022-09-20T19:05:14.782Z,45.22
2022-09-20T19:07:50.694Z,45.18
2022-09-20T19:10:49.321Z,45.12
2022-09-20T19:14:11.895Z,45.28
2022-09-20T19:16:38.655Z,45.16
2022-09-20T19:19:33.824Z,45.26
2022-09-20T19:22:08.088Z,45.22
2022-09-20T19:24:55.535Z,45.21
2022-09-20T19:27:23.429Z,45.16
2022-09-20T19:29:50.286Z,45.10
2022-09-20T19:32:21.143Z,45.31
2022-09-20T19:34:52.099Z,45.03
2022-09-20T19:37:36.598Z,44.81
2022-09-20T19:40:59.505Z,45.04
2022-09-20T19:43:38.330Z,45.00
2022-09-20T19:46:19.054Z,44.84
2022-09-20T19:49:12.859Z,44.71
2022-09-20T19:51:41.373Z,44.78
2022-09-20T19:54:12.057Z,44.65
2022-09-20T19:56:52.893Z,44.57
2022-09-20T19:59:24.714Z,44.65
2022-09-20T20:01:52.500Z,44.60
2022-09-20T20:04:20.584Z,44.51
2022-09-20T20:06:50.399Z,44.46
2022-09-20T20:09:43.489Z,44.43
2022-09-20T20:12:34.121Z,44.57
2022-09-20T20:15:05.691Z,44.26
2022-09-20T20:17:48.464Z,44.14
2022-09-20T20:20:43.892Z,44.27
2022-09-20T20:23:19.149Z,44.25
2022-09-20T20:26:13.836Z,44.30
2022-09-20T20:28:40.460Z,44.16
2022-09-20T20:31:09.143Z,44.12
2022-09-20T20:33:36.877Z,44.19
2022-09-20T20:36:03.512Z,44.23
2022-09-20T20:38:37.229Z,43.82
2022-09-20T20:41:09.648Z,44.03
2022-09-20T20:43:42.003Z,44.08
2022-09-20T20:46:12.160Z,43.86
2022-09-20T20:48:38.699Z,43.91
2022-09-20T20:51:12.608Z,43.90
2022-09-20T20:53:45.194Z,43.84
2022-09-20T20:56:17.139Z,43.99
2022-09-20T20:58:45.028Z,43.80
2022-09-20T21:01:15.723Z,43.74
2022-09-20T21:03:46.365Z,43.86
2022-09-20T21:06:14.780Z,43.74
2022-09-20T21:08:48.310Z,43.69
2022-09-20T21:11:19.747Z,43.76
2022-09-20T21:13:48.336Z,43.63
2022-09-20T21:16:17.827Z,43.62
2022-09-20T21:18:46.428Z,43.70
2022-09-20T21:21:27.397Z,43.52
2022-09-20T21:23:59.447Z,43.58
2022-09-20T21:26:28.276Z,43.44
2022-09-20T21:28:59.640Z,43.43
2022-09-20T21:31:28.474Z,43.58
2022-09-20T21:33:56.020Z,43.58
2022-09-20T21:36:25.292Z,43.42
2022-09-20T21:38:52.378Z,43.44
2022-09-20T21:41:27.503Z,43.51
2022-09-20T21:43:57.086Z,43.45
2022-09-20T21:46:32.582Z,43.35
2022-09-20T21:49:01.558Z,43.43
2022-09-20T21:51:31.219Z,43.31
2022-09-20T21:53:59.658Z,43.40
2022-09-20T21:56:28.865Z,43.24
2022-09-20T21:58:55.775Z,43.28
2022-09-20T22:01:25.300Z,43.31
2022-09-20T22:03:56.464Z,43.23
2022-09-20T22:06:29.552Z,43.20
2022-09-20T22:08:58.406Z,43.26
2022-09-20T22:11:27.492Z,43.24
2022-09-20T22:13:55.631Z,43.25
2022-09-20T22:16:30.719Z,43.27
2022-09-20T22:18:59.640Z,43.24
2022-09-20T22:21:36.648Z,43.28
2022-09-20T22:24:08.553Z,43.04
2022-09-20T22:26:39.961Z,43.18
2022-09-20T22:29:06.612Z,43.12
2022-09-20T22:31:36.799Z,43.12
2022-09-20T22:34:05.867Z,43.17
2022-09-20T22:36:35.335Z,42.99
2022-09-20T22:39:03.735Z,43.00
2022-09-20T22:41:30.284Z,43.21
2022-09-20T22:43:56.819Z,43.06
2022-09-20T22:46:25.652Z,43.03
2022-09-20T22:48:52.585Z,43.11
2022-09-20T22:51:21.859Z,43.11
2022-09-20T22:53:49.313Z,43.07
2022-09-20T22:56:24.864Z,42.96
2022-09-20T22:58:56.094Z,42.88
2022-09-20T23:01:25.277Z,42.88
2022-09-20T23:03:57.842Z,42.96
2022-09-20T23:06:28.064Z,42.97
2022-09-20T23:08:59.018Z,42.78
2022-09-20T23:11:26.123Z,42.91
2022-09-20T23:13:54.980Z,42.95
2022-09-20T23:16:28.139Z,42.88
2022-09-20T23:18:56.303Z,42.72
2022-09-20T23:21:23.104Z,42.78
2022-09-20T23:24:09.755Z,42.96
2022-09-20T23:26:38.735Z,42.81
2022-09-20T23:29:08.108Z,42.88
2022-09-20T23:31:37.043Z,42.91
2022-09-20T23:34:05.894Z,42.95
2022-09-20T23:36:35.510Z,42.69
2022-09-20T23:39:02.075Z,42.80
2022-09-20T23:41:28.859Z,42.77
2022-09-20T23:43:55.604Z,42.77
2022-09-20T23:46:25.302Z,42.71
2022-09-20T23:48:52.614Z,42.63
2022-09-20T23:51:22.493Z,42.65
2022-09-20T23:53:49.531Z,42.72
2022-09-20T23:56:16.035Z,42.54
2022-09-20T23:58:44.051Z,42.48
